CMB835 Details

Departure: Biggs Army Airfield (Fort Bliss) (KBIF)
Arrival: Joint Base McGuire Dix Lakehurst (KWRI) at N/A
Route: CME J26 PNH IFI J8 STL J110 VHP ROD J152 HAR
Notes: USTRANSCOM CONTRACT FLIGHT


Current Weather Information
KBIF 191558Z AUTO 19005KT 10SM OVC160 31/08 A3006 RMK AO2 SLP102 T03060080 $
KWRI 191556Z 28009KT 10SM BKN027 32/24 A2999 RMK AO2A SLP154 T03160239 $